sensor_id;sensor_type;location;lat;lon;timestamp;pressure;altitude;pressure_sealevel;temperature;humidity
15646;BME280;7922;43.622;1.476;2024-02-23T00:00:42;99166.09;;;6.72;85.80
15646;BME280;7922;43.622;1.476;2024-02-23T00:03:08;99182.34;;;6.82;85.59
15646;BME280;7922;43.622;1.476;2024-02-23T00:05:33;99239.19;;;7.10;86.01
15646;BME280;7922;43.622;1.476;2024-02-23T00:07:58;99208.97;;;6.96;86.22
15646;BME280;7922;43.622;1.476;2024-02-23T00:10:23;99183.34;;;6.80;86.62
15646;BME280;7922;43.622;1.476;2024-02-23T00:12:49;99100.13;;;6.33;86.35
15646;BME280;7922;43.622;1.476;2024-02-23T00:15:14;99101.19;;;6.27;86.93
15646;BME280;7922;43.622;1.476;2024-02-23T00:17:39;99090.44;;;6.12;86.90
15646;BME280;7922;43.622;1.476;2024-02-23T00:20:08;99169.38;;;6.56;87.06
15646;BME280;7922;43.622;1.476;2024-02-23T00:22:33;99195.78;;;6.76;87.62
15646;BME280;7922;43.622;1.476;2024-02-23T00:24:59;99182.00;;;6.69;86.99
15646;BME280;7922;43.622;1.476;2024-02-23T00:27:24;99154.41;;;6.58;87.39
15646;BME280;7922;43.622;1.476;2024-02-23T00:29:49;99186.16;;;6.75;87.03
15646;BME280;7922;43.622;1.476;2024-02-23T00:32:15;99150.78;;;6.60;86.52
15646;BME280;7922;43.622;1.476;2024-02-23T00:34:40;99150.72;;;6.62;86.96
15646;BME280;7922;43.622;1.476;2024-02-23T00:37:05;99200.75;;;6.84;86.95
15646;BME280;7922;43.622;1.476;2024-02-23T00:39:31;99146.19;;;6.43;87.38
15646;BME280;7922;43.622;1.476;2024-02-23T00:41:56;99164.22;;;6.53;87.18
15646;BME280;7922;43.622;1.476;2024-02-23T00:44:21;99191.06;;;6.62;87.24
15646;BME280;7922;43.622;1.476;2024-02-23T00:46:46;99173.69;;;6.58;87.63
15646;BME280;7922;43.622;1.476;2024-02-23T00:49:12;99177.28;;;6.56;86.90
15646;BME280;7922;43.622;1.476;2024-02-23T00:51:37;99158.59;;;6.40;87.31
15646;BME280;7922;43.622;1.476;2024-02-23T00:54:02;99054.09;;;5.76;87.13
15646;BME280;7922;43.622;1.476;2024-02-23T00:56:28;99184.31;;;6.55;87.55
15646;BME280;7922;43.622;1.476;2024-02-23T00:58:53;99137.97;;;6.29;87.15
15646;BME280;7922;43.622;1.476;2024-02-23T01:01:18;99107.25;;;6.08;87.54
15646;BME280;7922;43.622;1.476;2024-02-23T01:03:43;99156.19;;;6.34;87.48
15646;BME280;7922;43.622;1.476;2024-02-23T01:06:09;99073.69;;;5.91;86.70
15646;BME280;7922;43.622;1.476;2024-02-23T01:08:34;99080.63;;;5.93;86.84
15646;BME280;7922;43.622;1.476;2024-02-23T01:10:59;99037.69;;;5.69;86.65
15646;BME280;7922;43.622;1.476;2024-02-23T01:13:28;99143.25;;;6.29;86.72
15646;BME280;7922;43.622;1.476;2024-02-23T01:15:53;99143.25;;;6.29;86.59
15646;BME280;7922;43.622;1.476;2024-02-23T01:18:18;99113.81;;;6.19;86.21
15646;BME280;7922;43.622;1.476;2024-02-23T01:20:44;99127.88;;;6.18;86.17
15646;BME280;7922;43.622;1.476;2024-02-23T01:23:09;99158.75;;;6.35;86.54
15646;BME280;7922;43.622;1.476;2024-02-23T01:25:34;99155.41;;;6.32;86.49
15646;BME280;7922;43.622;1.476;2024-02-23T01:28:00;99145.63;;;6.35;86.08
15646;BME280;7922;43.622;1.476;2024-02-23T01:30:25;99162.47;;;6.53;85.63
15646;BME280;7922;43.622;1.476;2024-02-23T01:32:51;99142.63;;;6.44;85.38
15646;BME280;7922;43.622;1.476;2024-02-23T01:35:16;99140.09;;;6.43;84.88
15646;BME280;7922;43.622;1.476;2024-02-23T01:37:41;99147.56;;;6.54;84.55
15646;BME280;7922;43.622;1.476;2024-02-23T01:40:07;99117.56;;;6.36;84.66
15646;BME280;7922;43.622;1.476;2024-02-23T01:42:32;99154.25;;;6.61;84.96
15646;BME280;7922;43.622;1.476;2024-02-23T01:44:57;99121.66;;;6.43;84.76
15646;BME280;7922;43.622;1.476;2024-02-23T01:47:27;99112.31;;;6.36;84.78
15646;BME280;7922;43.622;1.476;2024-02-23T01:49:54;99148.34;;;6.56;84.56
15646;BME280;7922;43.622;1.476;2024-02-23T01:52:21;99016.63;;;5.71;85.47
15646;BME280;7922;43.622;1.476;2024-02-23T01:54:46;99092.66;;;6.22;85.02
15646;BME280;7922;43.622;1.476;2024-02-23T01:57:12;99086.22;;;6.30;85.35
15646;BME280;7922;43.622;1.476;2024-02-23T01:59:38;99089.53;;;6.35;84.93
15646;BME280;7922;43.622;1.476;2024-02-23T02:02:04;99059.44;;;6.20;85.25
15646;BME280;7922;43.622;1.476;2024-02-23T02:04:29;99113.41;;;6.52;85.48
15646;BME280;7922;43.622;1.476;2024-02-23T02:06:55;99084.56;;;6.27;85.77
15646;BME280;7922;43.622;1.476;2024-02-23T02:09:21;99071.84;;;6.16;85.80
15646;BME280;7922;43.622;1.476;2024-02-23T02:11:47;99085.44;;;6.27;85.79
15646;BME280;7922;43.622;1.476;2024-02-23T02:14:13;99041.81;;;6.00;86.15
15646;BME280;7922;43.622;1.476;2024-02-23T02:16:39;99106.84;;;6.40;86.53
15646;BME280;7922;43.622;1.476;2024-02-23T02:19:04;99048.47;;;6.09;86.21
15646;BME280;7922;43.622;1.476;2024-02-23T02:21:31;98991.94;;;5.75;86.06
15646;BME280;7922;43.622;1.476;2024-02-23T02:23:56;99073.19;;;6.26;86.07
15646;BME280;7922;43.622;1.476;2024-02-23T02:26:22;98959.88;;;5.67;85.91
15646;BME280;7922;43.622;1.476;2024-02-23T02:28:47;99058.59;;;6.19;85.36
15646;BME280;7922;43.622;1.476;2024-02-23T02:31:12;99069.75;;;6.24;85.65
15646;BME280;7922;43.622;1.476;2024-02-23T02:33:40;99014.94;;;5.92;84.91
15646;BME280;7922;43.622;1.476;2024-02-23T02:36:05;99101.78;;;6.36;85.54
15646;BME280;7922;43.622;1.476;2024-02-23T02:38:30;98962.63;;;5.64;84.99
15646;BME280;7922;43.622;1.476;2024-02-23T02:40:55;99053.31;;;6.19;85.65
15646;BME280;7922;43.622;1.476;2024-02-23T02:43:21;98986.59;;;5.78;85.65
15646;BME280;7922;43.622;1.476;2024-02-23T02:45:46;98963.41;;;5.66;85.36
15646;BME280;7922;43.622;1.476;2024-02-23T02:48:11;99039.63;;;6.11;85.32
15646;BME280;7922;43.622;1.476;2024-02-23T02:50:37;99038.94;;;6.28;85.21
15646;BME280;7922;43.622;1.476;2024-02-23T02:53:02;98954.06;;;5.80;85.51
15646;BME280;7922;43.622;1.476;2024-02-23T02:55:27;98988.63;;;5.93;85.53
15646;BME280;7922;43.622;1.476;2024-02-23T02:57:52;98981.88;;;5.86;85.60
15646;BME280;7922;43.622;1.476;2024-02-23T03:00:18;99039.50;;;6.14;85.79
15646;BME280;7922;43.622;1.476;2024-02-23T03:02:43;99039.09;;;6.25;85.72
15646;BME280;7922;43.622;1.476;2024-02-23T03:05:08;99000.50;;;6.03;85.58
15646;BME280;7922;43.622;1.476;2024-02-23T03:07:34;99022.81;;;6.15;85.33
15646;BME280;7922;43.622;1.476;2024-02-23T03:09:59;98961.09;;;5.80;85.18
15646;BME280;7922;43.622;1.476;2024-02-23T03:12:24;99020.81;;;6.22;85.51
15646;BME280;7922;43.622;1.476;2024-02-23T03:14:50;99003.75;;;6.10;84.86
15646;BME280;7922;43.622;1.476;2024-02-23T03:17:15;98936.78;;;5.75;84.58
15646;BME280;7922;43.622;1.476;2024-02-23T03:19:40;99039.75;;;6.30;84.87
15646;BME280;7922;43.622;1.476;2024-02-23T03:22:05;99018.81;;;6.27;84.01
15646;BME280;7922;43.622;1.476;2024-02-23T03:24:31;99058.56;;;6.41;84.61
15646;BME280;7922;43.622;1.476;2024-02-23T03:26:56;99005.56;;;6.08;84.13
15646;BME280;7922;43.622;1.476;2024-02-23T03:29:22;99021.00;;;6.17;84.32
15646;BME280;7922;43.622;1.476;2024-02-23T03:31:47;98944.97;;;5.67;84.16
15646;BME280;7922;43.622;1.476;2024-02-23T03:34:13;99047.09;;;6.22;83.90
15646;BME280;7922;43.622;1.476;2024-02-23T03:36:38;98966.19;;;5.85;83.11
15646;BME280;7922;43.622;1.476;2024-02-23T03:39:03;98996.13;;;6.02;83.41
15646;BME280;7922;43.622;1.476;2024-02-23T03:41:29;99012.94;;;5.98;83.84
15646;BME280;7922;43.622;1.476;2024-02-23T03:43:54;98978.22;;;5.90;83.91
15646;BME280;7922;43.622;1.476;2024-02-23T03:46:19;98996.41;;;5.96;83.49
15646;BME280;7922;43.622;1.476;2024-02-23T03:48:45;98919.16;;;5.55;83.66
15646;BME280;7922;43.622;1.476;2024-02-23T03:51:10;98992.31;;;5.88;84.00
15646;BME280;7922;43.622;1.476;2024-02-23T03:53:36;98999.16;;;5.93;84.00
15646;BME280;7922;43.622;1.476;2024-02-23T03:56:01;98995.75;;;5.90;83.38
15646;BME280;7922;43.622;1.476;2024-02-23T03:58:26;98951.81;;;5.71;83.78
15646;BME280;7922;43.622;1.476;2024-02-23T04:00:52;98972.41;;;5.82;83.81
15646;BME280;7922;43.622;1.476;2024-02-23T04:03:17;98896.19;;;5.38;84.55
15646;BME280;7922;43.622;1.476;2024-02-23T04:05:42;99005.91;;;5.99;85.02
15646;BME280;7922;43.622;1.476;2024-02-23T04:08:07;99008.53;;;5.99;84.53
15646;BME280;7922;43.622;1.476;2024-02-23T04:10:33;98970.00;;;5.76;85.26
15646;BME280;7922;43.622;1.476;2024-02-23T04:12:58;98992.50;;;5.83;85.82
15646;BME280;7922;43.622;1.476;2024-02-23T04:15:23;99010.41;;;5.97;85.41
15646;BME280;7922;43.622;1.476;2024-02-23T04:17:49;98982.91;;;5.82;85.44
15646;BME280;7922;43.622;1.476;2024-02-23T04:20:14;98965.59;;;5.76;85.51
15646;BME280;7922;43.622;1.476;2024-02-23T04:22:39;98973.44;;;5.78;85.41
15646;BME280;7922;43.622;1.476;2024-02-23T04:25:05;98963.72;;;5.80;86.09
15646;BME280;7922;43.622;1.476;2024-02-23T04:27:30;98956.75;;;5.79;85.57
15646;BME280;7922;43.622;1.476;2024-02-23T04:29:56;98969.69;;;5.84;85.81
15646;BME280;7922;43.622;1.476;2024-02-23T04:32:21;98968.19;;;5.78;85.82
15646;BME280;7922;43.622;1.476;2024-02-23T04:34:46;98923.81;;;5.48;86.27
15646;BME280;7922;43.622;1.476;2024-02-23T04:37:12;98965.97;;;5.67;86.24
15646;BME280;7922;43.622;1.476;2024-02-23T04:39:37;98950.34;;;5.64;86.49
15646;BME280;7922;43.622;1.476;2024-02-23T04:42:02;98977.16;;;5.72;85.92
15646;BME280;7922;43.622;1.476;2024-02-23T04:44:28;98878.41;;;5.23;86.45
15646;BME280;7922;43.622;1.476;2024-02-23T04:46:53;98959.81;;;5.68;86.62
15646;BME280;7922;43.622;1.476;2024-02-23T04:49:18;98893.97;;;5.27;86.15
15646;BME280;7922;43.622;1.476;2024-02-23T04:51:43;98897.22;;;5.34;85.93
15646;BME280;7922;43.622;1.476;2024-02-23T04:54:09;98864.59;;;5.18;85.89
15646;BME280;7922;43.622;1.476;2024-02-23T04:56:34;98870.69;;;5.18;86.69
15646;BME280;7922;43.622;1.476;2024-02-23T04:58:59;98886.84;;;5.31;86.82
15646;BME280;7922;43.622;1.476;2024-02-23T05:01:25;98916.28;;;5.39;86.70
15646;BME280;7922;43.622;1.476;2024-02-23T05:03:50;98941.06;;;5.55;86.54
15646;BME280;7922;43.622;1.476;2024-02-23T05:06:15;98942.00;;;5.53;86.72
15646;BME280;7922;43.622;1.476;2024-02-23T05:08:41;98964.19;;;5.68;85.94
15646;BME280;7922;43.622;1.476;2024-02-23T05:11:06;98930.03;;;5.46;86.49
15646;BME280;7922;43.622;1.476;2024-02-23T05:13:31;98868.16;;;5.17;86.00
15646;BME280;7922;43.622;1.476;2024-02-23T05:15:57;98961.13;;;5.57;85.71
15646;BME280;7922;43.622;1.476;2024-02-23T05:18:22;98972.31;;;5.62;85.84
15646;BME280;7922;43.622;1.476;2024-02-23T05:20:47;98949.19;;;5.48;86.68
15646;BME280;7922;43.622;1.476;2024-02-23T05:23:13;98978.53;;;5.59;86.38
15646;BME280;7922;43.622;1.476;2024-02-23T05:25:38;98951.28;;;5.40;86.73
15646;BME280;7922;43.622;1.476;2024-02-23T05:28:03;98880.22;;;4.97;87.47
15646;BME280;7922;43.622;1.476;2024-02-23T05:30:29;98947.06;;;5.36;87.15
15646;BME280;7922;43.622;1.476;2024-02-23T05:32:54;98854.75;;;4.77;87.45
15646;BME280;7922;43.622;1.476;2024-02-23T05:35:19;98968.81;;;5.39;87.43
15646;BME280;7922;43.622;1.476;2024-02-23T05:37:44;98959.44;;;5.32;88.19
15646;BME280;7922;43.622;1.476;2024-02-23T05:40:10;98879.78;;;4.86;88.27
15646;BME280;7922;43.622;1.476;2024-02-23T05:42:36;98966.25;;;5.38;88.22
15646;BME280;7922;43.622;1.476;2024-02-23T05:45:02;98921.94;;;5.28;88.16
15646;BME280;7922;43.622;1.476;2024-02-23T05:47:27;98801.13;;;4.61;87.94
15646;BME280;7922;43.622;1.476;2024-02-23T05:49:53;98944.44;;;5.36;88.12
15646;BME280;7922;43.622;1.476;2024-02-23T05:52:18;98845.09;;;4.78;87.60
15646;BME280;7922;43.622;1.476;2024-02-23T05:54:43;98856.34;;;4.81;87.91
15646;BME280;7922;43.622;1.476;2024-02-23T05:57:08;98989.78;;;5.63;87.06
15646;BME280;7922;43.622;1.476;2024-02-23T05:59:34;98962.91;;;5.56;86.16
15646;BME280;7922;43.622;1.476;2024-02-23T06:01:59;98908.63;;;5.33;85.92
15646;BME280;7922;43.622;1.476;2024-02-23T06:04:24;98997.44;;;5.92;85.75
15646;BME280;7922;43.622;1.476;2024-02-23T06:06:50;98941.19;;;5.74;85.57
15646;BME280;7922;43.622;1.476;2024-02-23T06:09:15;98987.03;;;6.11;85.02
15646;BME280;7922;43.622;1.476;2024-02-23T06:11:40;98938.38;;;5.79;84.28
15646;BME280;7922;43.622;1.476;2024-02-23T06:14:06;98974.03;;;6.08;84.00
15646;BME280;7922;43.622;1.476;2024-02-23T06:16:31;98984.22;;;6.16;84.04
15646;BME280;7922;43.622;1.476;2024-02-23T06:18:56;98853.25;;;5.39;83.05
15646;BME280;7922;43.622;1.476;2024-02-23T06:21:22;98962.91;;;6.01;83.68
15646;BME280;7922;43.622;1.476;2024-02-23T06:23:47;98958.78;;;5.94;83.87
15646;BME280;7922;43.622;1.476;2024-02-23T06:26:12;98938.97;;;5.86;84.73
15646;BME280;7922;43.622;1.476;2024-02-23T06:28:38;98969.63;;;6.09;84.26
15646;BME280;7922;43.622;1.476;2024-02-23T06:31:05;98974.88;;;6.09;84.43
15646;BME280;7922;43.622;1.476;2024-02-23T06:33:31;98971.16;;;6.14;83.73
15646;BME280;7922;43.622;1.476;2024-02-23T06:35:56;98899.13;;;5.74;83.36
15646;BME280;7922;43.622;1.476;2024-02-23T06:38:22;98944.44;;;6.03;83.38
15646;BME280;7922;43.622;1.476;2024-02-23T06:40:47;98975.28;;;6.20;83.51
15646;BME280;7922;43.622;1.476;2024-02-23T06:43:13;98972.34;;;6.27;82.95
15646;BME280;7922;43.622;1.476;2024-02-23T06:45:38;98947.41;;;6.16;83.16
15646;BME280;7922;43.622;1.476;2024-02-23T06:48:03;99000.34;;;6.50;83.40
15646;BME280;7922;43.622;1.476;2024-02-23T06:50:29;98960.66;;;6.35;82.98
15646;BME280;7922;43.622;1.476;2024-02-23T06:52:54;98971.91;;;6.38;83.49
15646;BME280;7922;43.622;1.476;2024-02-23T06:55:20;98964.94;;;6.37;82.40
15646;BME280;7922;43.622;1.476;2024-02-23T06:57:45;98868.34;;;5.78;83.20
15646;BME280;7922;43.622;1.476;2024-02-23T07:00:11;98981.97;;;6.49;82.42
15646;BME280;7922;43.622;1.476;2024-02-23T07:02:36;98849.81;;;5.81;81.95
15646;BME280;7922;43.622;1.476;2024-02-23T07:05:02;98998.75;;;6.67;81.84
15646;BME280;7922;43.622;1.476;2024-02-23T07:07:28;99006.00;;;6.62;81.79
15646;BME280;7922;43.622;1.476;2024-02-23T07:09:53;98900.59;;;6.03;81.35
15646;BME280;7922;43.622;1.476;2024-02-23T07:12:18;98973.63;;;6.39;83.16
15646;BME280;7922;43.622;1.476;2024-02-23T07:14:43;98981.56;;;6.38;84.12
15646;BME280;7922;43.622;1.476;2024-02-23T07:17:09;99002.84;;;6.32;85.46
15646;BME280;7922;43.622;1.476;2024-02-23T07:19:34;98923.56;;;5.76;84.64
15646;BME280;7922;43.622;1.476;2024-02-23T07:21:59;98965.00;;;5.92;86.04
15646;BME280;7922;43.622;1.476;2024-02-23T07:24:24;98998.97;;;6.20;85.86
15646;BME280;7922;43.622;1.476;2024-02-23T07:26:50;99001.66;;;6.18;86.01
15646;BME280;7922;43.622;1.476;2024-02-23T07:29:15;98966.38;;;6.02;85.82
15646;BME280;7922;43.622;1.476;2024-02-23T07:31:40;99020.16;;;6.37;86.22
15646;BME280;7922;43.622;1.476;2024-02-23T07:34:05;99012.34;;;6.36;85.17
15646;BME280;7922;43.622;1.476;2024-02-23T07:36:31;98941.31;;;5.93;84.97
15646;BME280;7922;43.622;1.476;2024-02-23T07:38:56;98934.47;;;5.89;85.52
15646;BME280;7922;43.622;1.476;2024-02-23T07:41:21;98955.81;;;6.03;85.29
15646;BME280;7922;43.622;1.476;2024-02-23T07:43:46;98979.19;;;6.32;85.64
15646;BME280;7922;43.622;1.476;2024-02-23T07:46:12;98897.91;;;5.83;85.04
15646;BME280;7922;43.622;1.476;2024-02-23T07:48:38;98962.88;;;6.23;84.57
15646;BME280;7922;43.622;1.476;2024-02-23T07:51:04;98997.34;;;6.38;84.60
15646;BME280;7922;43.622;1.476;2024-02-23T07:53:30;98889.16;;;5.83;83.72
15646;BME280;7922;43.622;1.476;2024-02-23T07:55:55;98995.59;;;6.59;83.49
15646;BME280;7922;43.622;1.476;2024-02-23T07:58:20;98986.00;;;6.58;82.44
15646;BME280;7922;43.622;1.476;2024-02-23T08:00:46;98991.69;;;6.69;81.43
15646;BME280;7922;43.622;1.476;2024-02-23T08:03:11;98971.69;;;6.65;80.98
15646;BME280;7922;43.622;1.476;2024-02-23T08:05:36;98891.75;;;6.26;80.54
15646;BME280;7922;43.622;1.476;2024-02-23T08:08:02;99000.59;;;6.85;80.33
15646;BME280;7922;43.622;1.476;2024-02-23T08:10:27;98969.47;;;6.74;79.63
15646;BME280;7922;43.622;1.476;2024-02-23T08:12:53;98949.34;;;6.73;79.71
15646;BME280;7922;43.622;1.476;2024-02-23T08:15:18;98964.25;;;7.14;78.56
15646;BME280;7922;43.622;1.476;2024-02-23T08:17:43;98889.06;;;6.88;77.78
15646;BME280;7922;43.622;1.476;2024-02-23T08:20:09;98967.84;;;7.51;76.01
15646;BME280;7922;43.622;1.476;2024-02-23T08:22:34;98954.38;;;7.57;75.18
15646;BME280;7922;43.622;1.476;2024-02-23T08:25:00;98952.97;;;8.05;74.04
15646;BME280;7922;43.622;1.476;2024-02-23T08:27:25;98969.25;;;7.77;73.20
15646;BME280;7922;43.622;1.476;2024-02-23T08:29:50;98930.47;;;7.42;73.75
15646;BME280;7922;43.622;1.476;2024-02-23T08:32:16;98958.81;;;7.56;74.02
15646;BME280;7922;43.622;1.476;2024-02-23T08:34:41;98991.94;;;7.81;73.05
15646;BME280;7922;43.622;1.476;2024-02-23T08:37:06;98846.72;;;6.92;73.77
15646;BME280;7922;43.622;1.476;2024-02-23T08:39:31;98977.44;;;7.33;73.82
15646;BME280;7922;43.622;1.476;2024-02-23T08:41:57;98986.84;;;7.38;73.55
15646;BME280;7922;43.622;1.476;2024-02-23T08:44:22;98888.50;;;7.00;73.00
15646;BME280;7922;43.622;1.476;2024-02-23T08:46:47;98895.69;;;6.96;73.26
15646;BME280;7922;43.622;1.476;2024-02-23T08:49:13;98955.03;;;7.43;73.17
15646;BME280;7922;43.622;1.476;2024-02-23T08:51:38;98875.56;;;6.95;73.48
15646;BME280;7922;43.622;1.476;2024-02-23T08:54:03;99018.13;;;7.65;73.50
15646;BME280;7922;43.622;1.476;2024-02-23T08:56:29;98976.59;;;7.51;73.25
15646;BME280;7922;43.622;1.476;2024-02-23T08:58:54;98988.38;;;7.63;73.17
15646;BME280;7922;43.622;1.476;2024-02-23T09:01:19;99026.06;;;8.20;72.70
15646;BME280;7922;43.622;1.476;2024-02-23T09:03:44;99030.84;;;8.50;72.00
15646;BME280;7922;43.622;1.476;2024-02-23T09:06:10;98957.41;;;8.04;71.51
15646;BME280;7922;43.622;1.476;2024-02-23T09:08:35;99005.09;;;8.00;71.79
15646;BME280;7922;43.622;1.476;2024-02-23T09:11:00;98990.16;;;7.81;71.52
15646;BME280;7922;43.622;1.476;2024-02-23T09:13:26;98938.50;;;7.58;71.61
15646;BME280;7922;43.622;1.476;2024-02-23T09:15:51;99000.53;;;8.20;71.30
15646;BME280;7922;43.622;1.476;2024-02-23T09:18:16;99009.81;;;8.29;70.78
15646;BME280;7922;43.622;1.476;2024-02-23T09:20:41;99022.91;;;8.13;71.33
15646;BME280;7922;43.622;1.476;2024-02-23T09:23:07;98962.06;;;7.80;71.00
15646;BME280;7922;43.622;1.476;2024-02-23T09:25:32;98986.53;;;8.01;71.15
15646;BME280;7922;43.622;1.476;2024-02-23T09:27:57;98972.75;;;7.96;70.88
15646;BME280;7922;43.622;1.476;2024-02-23T09:30:23;99004.50;;;8.12;70.37
15646;BME280;7922;43.622;1.476;2024-02-23T09:32:48;99003.25;;;7.83;70.92
15646;BME280;7922;43.622;1.476;2024-02-23T09:35:13;99011.34;;;7.97;71.73
15646;BME280;7922;43.622;1.476;2024-02-23T09:37:39;99005.66;;;7.68;71.92
15646;BME280;7922;43.622;1.476;2024-02-23T09:40:04;99035.38;;;7.91;71.80
15646;BME280;7922;43.622;1.476;2024-02-23T09:42:31;98918.75;;;7.10;71.86
15646;BME280;7922;43.622;1.476;2024-02-23T09:45:00;99002.91;;;7.53;72.74
15646;BME280;7922;43.622;1.476;2024-02-23T09:47:27;98956.44;;;7.31;73.39
15646;BME280;7922;43.622;1.476;2024-02-23T09:49:52;98930.88;;;7.33;73.96
15646;BME280;7922;43.622;1.476;2024-02-23T09:52:19;98960.28;;;7.43;74.84
15646;BME280;7922;43.622;1.476;2024-02-23T09:54:44;99041.59;;;7.71;74.68
15646;BME280;7922;43.622;1.476;2024-02-23T09:57:10;99045.91;;;7.72;74.77
15646;BME280;7922;43.622;1.476;2024-02-23T09:59:35;99029.03;;;7.57;75.12
15646;BME280;7922;43.622;1.476;2024-02-23T10:02:02;99016.28;;;7.48;74.42
15646;BME280;7922;43.622;1.476;2024-02-23T10:04:31;99032.66;;;7.55;77.19
15646;BME280;7922;43.622;1.476;2024-02-23T10:06:57;99066.91;;;7.55;78.68
15646;BME280;7922;43.622;1.476;2024-02-23T10:09:22;99041.69;;;7.49;79.11
15646;BME280;7922;43.622;1.476;2024-02-23T10:11:53;98994.16;;;7.13;80.62
15646;BME280;7922;43.622;1.476;2024-02-23T10:14:19;99077.41;;;7.36;83.01
15646;BME280;7922;43.622;1.476;2024-02-23T10:16:44;99040.47;;;6.96;84.93
15646;BME280;7922;43.622;1.476;2024-02-23T10:19:09;98927.69;;;6.06;84.18
15646;BME280;7922;43.622;1.476;2024-02-23T10:21:35;99031.78;;;6.54;86.17
15646;BME280;7922;43.622;1.476;2024-02-23T10:24:01;99063.66;;;6.88;87.84
15646;BME280;7922;43.622;1.476;2024-02-23T10:26:26;99048.94;;;7.05;87.75
15646;BME280;7922;43.622;1.476;2024-02-23T10:28:52;99054.03;;;7.08;87.59
15646;BME280;7922;43.622;1.476;2024-02-23T10:31:17;99068.53;;;7.18;85.56
15646;BME280;7922;43.622;1.476;2024-02-23T10:33:44;99074.25;;;7.07;87.54
15646;BME280;7922;43.622;1.476;2024-02-23T10:36:11;98957.56;;;6.45;86.37
15646;BME280;7922;43.622;1.476;2024-02-23T10:38:41;99057.56;;;7.08;86.26
15646;BME280;7922;43.622;1.476;2024-02-23T10:41:12;99043.56;;;6.86;83.83
15646;BME280;7922;43.622;1.476;2024-02-23T10:43:44;99037.53;;;7.04;83.79
15646;BME280;7922;43.622;1.476;2024-02-23T10:46:11;99061.00;;;7.29;83.74
15646;BME280;7922;43.622;1.476;2024-02-23T10:48:37;99073.00;;;7.36;82.59
15646;BME280;7922;43.622;1.476;2024-02-23T10:51:05;99040.66;;;7.33;83.33
15646;BME280;7922;43.622;1.476;2024-02-23T10:53:32;99069.25;;;7.42;84.16
15646;BME280;7922;43.622;1.476;2024-02-23T10:55:57;98942.56;;;6.88;83.92
15646;BME280;7922;43.622;1.476;2024-02-23T10:58:23;99038.38;;;7.64;83.67
15646;BME280;7922;43.622;1.476;2024-02-23T11:00:48;99032.59;;;7.75;81.11
15646;BME280;7922;43.622;1.476;2024-02-23T11:03:14;99032.88;;;7.69;81.99
15646;BME280;7922;43.622;1.476;2024-02-23T11:05:40;99034.53;;;7.90;80.66
15646;BME280;7922;43.622;1.476;2024-02-23T11:08:06;99049.47;;;8.09;79.66
15646;BME280;7922;43.622;1.476;2024-02-23T11:10:31;99064.22;;;8.13;79.20
15646;BME280;7922;43.622;1.476;2024-02-23T11:12:58;99060.00;;;8.28;79.91
15646;BME280;7922;43.622;1.476;2024-02-23T11:15:30;99065.50;;;8.23;78.88
15646;BME280;7922;43.622;1.476;2024-02-23T11:17:55;99066.72;;;7.97;79.60
15646;BME280;7922;43.622;1.476;2024-02-23T11:20:21;99064.09;;;7.97;79.10
15646;BME280;7922;43.622;1.476;2024-02-23T11:22:51;98992.91;;;7.78;78.47
15646;BME280;7922;43.622;1.476;2024-02-23T11:25:17;99064.06;;;8.35;78.68
15646;BME280;7922;43.622;1.476;2024-02-23T11:27:42;99074.06;;;8.09;78.04
15646;BME280;7922;43.622;1.476;2024-02-23T11:30:08;99073.72;;;7.79;79.92
15646;BME280;7922;43.622;1.476;2024-02-23T11:32:41;99109.41;;;8.05;80.92
15646;BME280;7922;43.622;1.476;2024-02-23T11:35:10;99070.19;;;7.00;84.09
15646;BME280;7922;43.622;1.476;2024-02-23T11:37:48;99117.00;;;7.34;86.57
15646;BME280;7922;43.622;1.476;2024-02-23T11:40:15;99018.22;;;6.63;87.35
15646;BME280;7922;43.622;1.476;2024-02-23T11:42:42;99079.84;;;6.57;87.67
15646;BME280;7922;43.622;1.476;2024-02-23T11:45:07;99001.41;;;6.02;89.92
15646;BME280;7922;43.622;1.476;2024-02-23T11:47:33;99005.25;;;6.16;90.14
15646;BME280;7922;43.622;1.476;2024-02-23T11:49:58;99061.50;;;6.56;90.10
15646;BME280;7922;43.622;1.476;2024-02-23T11:52:23;98978.34;;;6.09;89.20
15646;BME280;7922;43.622;1.476;2024-02-23T11:54:49;98961.72;;;6.09;90.26
15646;BME280;7922;43.622;1.476;2024-02-23T11:57:14;99074.75;;;6.54;91.82
15646;BME280;7922;43.622;1.476;2024-02-23T11:59:40;99039.00;;;6.26;90.05
15646;BME280;7922;43.622;1.476;2024-02-23T12:02:06;99027.34;;;6.34;91.42
15646;BME280;7922;43.622;1.476;2024-02-23T12:04:31;98973.38;;;6.23;90.16
15646;BME280;7922;43.622;1.476;2024-02-23T12:06:57;99042.72;;;6.85;89.30
15646;BME280;7922;43.622;1.476;2024-02-23T12:09:22;99022.91;;;7.17;87.57
15646;BME280;7922;43.622;1.476;2024-02-23T12:11:47;99018.69;;;7.34;85.96
15646;BME280;7922;43.622;1.476;2024-02-23T12:14:13;99017.28;;;7.25;85.51
15646;BME280;7922;43.622;1.476;2024-02-23T12:16:40;98950.06;;;6.97;83.82
15646;BME280;7922;43.622;1.476;2024-02-23T12:19:05;99017.06;;;7.69;84.53
15646;BME280;7922;43.622;1.476;2024-02-23T12:21:34;98947.03;;;7.82;84.27
15646;BME280;7922;43.622;1.476;2024-02-23T12:23:59;99008.88;;;8.30;83.13
15646;BME280;7922;43.622;1.476;2024-02-23T12:26:25;98925.38;;;8.29;81.04
15646;BME280;7922;43.622;1.476;2024-02-23T12:28:50;99000.34;;;8.79;80.75
15646;BME280;7922;43.622;1.476;2024-02-23T12:31:15;98996.84;;;8.43;80.51
15646;BME280;7922;43.622;1.476;2024-02-23T12:33:41;98987.38;;;8.39;80.86
15646;BME280;7922;43.622;1.476;2024-02-23T12:36:07;98914.44;;;7.83;79.23
15646;BME280;7922;43.622;1.476;2024-02-23T12:38:33;98990.63;;;8.26;79.58
15646;BME280;7922;43.622;1.476;2024-02-23T12:41:00;98946.19;;;7.82;77.21
15646;BME280;7922;43.622;1.476;2024-02-23T12:43:25;98987.78;;;8.30;77.36
15646;BME280;7922;43.622;1.476;2024-02-23T12:45:52;98940.63;;;8.05;75.81
15646;BME280;7922;43.622;1.476;2024-02-23T12:48:18;98947.63;;;8.06;75.94
15646;BME280;7922;43.622;1.476;2024-02-23T12:50:44;98976.97;;;8.35;76.90
15646;BME280;7922;43.622;1.476;2024-02-23T12:53:09;98908.69;;;8.11;76.17
15646;BME280;7922;43.622;1.476;2024-02-23T12:55:34;98969.44;;;8.46;75.39
15646;BME280;7922;43.622;1.476;2024-02-23T12:58:00;98977.59;;;8.76;74.81
15646;BME280;7922;43.622;1.476;2024-02-23T13:00:25;98945.38;;;9.03;73.33
15646;BME280;7922;43.622;1.476;2024-02-23T13:02:50;98959.41;;;9.21;72.52
15646;BME280;7922;43.622;1.476;2024-02-23T13:05:15;98963.31;;;9.13;71.75
15646;BME280;7922;43.622;1.476;2024-02-23T13:07:41;98840.41;;;8.90;71.89
15646;BME280;7922;43.622;1.476;2024-02-23T13:10:06;98975.34;;;10.00;69.24
15646;BME280;7922;43.622;1.476;2024-02-23T13:12:32;98883.56;;;9.38;68.74